createdAt,value
2019-06-20T00:02:07.823Z,8.60
2019-06-20T00:06:11.315Z,6.12
2019-06-20T00:10:15.163Z,8.08
2019-06-20T00:14:18.637Z,6.60
2019-06-20T00:18:22.119Z,7.00
2019-06-20T00:22:25.592Z,8.35
2019-06-20T00:26:29.352Z,6.55
2019-06-20T00:30:33.099Z,7.30
2019-06-20T00:34:36.567Z,8.08
2019-06-20T00:38:40.409Z,8.30
2019-06-20T00:42:44.125Z,6.12
2019-06-20T00:46:47.594Z,4.50
2019-06-20T00:50:51.052Z,6.97
2019-06-20T00:54:54.504Z,3.90
2019-06-20T00:58:57.956Z,5.33
2019-06-20T01:03:01.821Z,5.45
2019-06-20T01:07:05.420Z,4.60
2019-06-20T01:11:08.888Z,6.72
2019-06-20T01:15:13.583Z,7.22
2019-06-20T01:19:17.116Z,9.60
2019-06-20T01:23:20.578Z,7.08
2019-06-20T01:27:24.048Z,12.03
2019-06-20T01:31:27.881Z,6.15
2019-06-20T01:35:31.588Z,6.78
2019-06-20T01:39:35.057Z,9.80
2019-06-20T01:43:49.948Z,6.90
2019-06-20T01:47:44.228Z,9.30
2019-06-20T01:51:47.707Z,14.10
2019-06-20T01:55:51.487Z,6.58
2019-06-20T01:59:54.952Z,7.67
2019-06-20T02:03:58.484Z,6.17
2019-06-20T02:08:01.963Z,6.08
2019-06-20T02:12:05.444Z,5.67
2019-06-20T02:16:08.912Z,6.53
2019-06-20T02:20:33.576Z,6.08
2019-06-20T02:24:37.116Z,9.50
2019-06-20T02:28:40.587Z,5.45
2019-06-20T02:32:44.047Z,5.92
2019-06-20T02:36:48.130Z,7.18
2019-06-20T02:40:51.588Z,9.98
2019-06-20T02:44:55.074Z,8.10
2019-06-20T02:48:58.849Z,4.12
2019-06-20T02:53:03.770Z,5.50
2019-06-20T02:57:07.307Z,5.22
2019-06-20T03:01:10.815Z,5.15
2019-06-20T03:05:14.411Z,6.47
2019-06-20T03:09:18.159Z,6.92
2019-06-20T03:13:21.629Z,8.95
2019-06-20T03:17:25.445Z,8.90
2019-06-20T03:21:28.975Z,6.73
2019-06-20T03:25:32.502Z,8.48
2019-06-20T03:29:35.960Z,9.30
2019-06-20T03:33:39.500Z,10.48
2019-06-20T03:37:42.969Z,8.93
2019-06-20T03:41:46.426Z,11.08
2019-06-20T03:45:49.880Z,10.63
2019-06-20T03:49:53.340Z,11.20
2019-06-20T03:53:56.805Z,11.68
2019-06-20T03:58:01.511Z,11.53
2019-06-20T04:02:05.339Z,11.80
2019-06-20T04:06:09.065Z,9.85
2019-06-20T04:10:12.908Z,11.40
2019-06-20T04:14:16.365Z,13.22
2019-06-20T04:18:20.170Z,12.40
2019-06-20T04:22:24.008Z,11.48
2019-06-20T04:26:27.476Z,11.57
2019-06-20T04:30:31.209Z,12.90
2019-06-20T04:34:35.007Z,10.25
2019-06-20T04:38:38.490Z,11.53
2019-06-20T04:42:42.009Z,9.75
2019-06-20T04:46:53.235Z,9.23
2019-06-20T04:50:56.972Z,13.15
2019-06-20T04:55:00.477Z,9.43
2019-06-20T04:59:04.391Z,10.45
2019-06-20T05:03:07.868Z,8.03
2019-06-20T05:07:14.400Z,10.65
2019-06-20T05:11:18.189Z,7.83
2019-06-20T05:15:21.640Z,9.55
2019-06-20T05:19:25.391Z,6.55
2019-06-20T05:23:28.848Z,9.43
2019-06-20T05:27:32.387Z,6.53
2019-06-20T05:31:35.831Z,6.90
2019-06-20T05:35:39.302Z,9.40
2019-06-20T05:39:42.830Z,6.58
2019-06-20T05:43:46.563Z,8.20
2019-06-20T05:47:50.531Z,7.15
2019-06-20T05:51:54.256Z,6.67
2019-06-20T05:55:57.718Z,11.25
2019-06-20T06:00:01.184Z,7.92
2019-06-20T06:04:07.644Z,7.95
2019-06-20T06:08:11.448Z,15.25
2019-06-20T06:12:14.917Z,7.67
2019-06-20T06:16:26.989Z,10.70
2019-06-20T06:20:23.630Z,14.50
2019-06-20T06:24:27.104Z,18.00
2019-06-20T06:28:30.641Z,21.00
2019-06-20T06:32:39.996Z,21.02
2019-06-20T06:36:39.672Z,17.82
2019-06-20T06:40:43.209Z,21.80
2019-06-20T06:44:46.740Z,26.00
2019-06-20T06:48:50.195Z,26.10
2019-06-20T06:52:53.661Z,25.17
2019-06-20T06:56:57.409Z,27.75
2019-06-20T07:01:01.148Z,27.17
2019-06-20T07:05:07.240Z,25.97
2019-06-20T07:09:10.974Z,25.82
2019-06-20T07:13:14.712Z,24.82
2019-06-20T07:17:18.176Z,28.07
2019-06-20T07:21:22.111Z,26.02
2019-06-20T07:25:25.645Z,28.10
2019-06-20T07:29:29.180Z,32.48
2019-06-20T07:33:32.661Z,36.33
2019-06-20T07:37:36.480Z,34.67
2019-06-20T07:41:39.949Z,37.95
2019-06-20T07:45:43.424Z,35.00
2019-06-20T07:49:46.896Z,35.23
2019-06-20T07:53:50.394Z,34.67
2019-06-20T07:57:53.953Z,33.45
2019-06-20T08:01:57.732Z,41.48
2019-06-20T08:06:01.201Z,44.90
2019-06-20T08:10:10.709Z,39.95
2019-06-20T08:14:14.498Z,40.80
2019-06-20T08:18:17.956Z,40.10
2019-06-20T08:22:21.428Z,39.97
2019-06-20T08:26:24.900Z,34.65
2019-06-20T08:30:30.218Z,40.78
2019-06-20T08:34:33.683Z,41.17
2019-06-20T08:38:37.151Z,35.45
2019-06-20T08:42:40.897Z,38.50
2019-06-20T08:46:44.368Z,42.98
2019-06-20T08:50:48.150Z,38.40
2019-06-20T08:54:51.912Z,38.50
2019-06-20T08:58:57.011Z,36.27
2019-06-20T09:11:07.845Z,33.95
2019-06-20T09:15:11.857Z,41.13
2019-06-20T09:19:15.325Z,34.45
2019-06-20T09:23:19.103Z,31.93
2019-06-20T09:27:22.839Z,37.58
2019-06-20T09:31:26.578Z,32.03
2019-06-20T09:35:30.291Z,31.90
2019-06-20T09:39:33.759Z,34.65
2019-06-20T09:43:37.236Z,30.65
2019-06-20T09:47:41.116Z,30.20
2019-06-20T09:51:44.591Z,27.77
2019-06-20T09:55:48.897Z,24.15
2019-06-20T10:00:03.309Z,23.45
2019-06-20T10:03:58.718Z,26.73
2019-06-20T10:08:02.575Z,31.65
2019-06-20T10:12:06.335Z,28.83
2019-06-20T10:16:10.054Z,34.20
2019-06-20T10:20:13.768Z,35.60
2019-06-20T10:24:17.228Z,31.87
2019-06-20T10:28:20.963Z,31.27
2019-06-20T10:32:24.760Z,35.58
2019-06-20T10:36:28.239Z,31.93
2019-06-20T10:40:31.992Z,29.55
2019-06-20T10:44:35.711Z,23.98
2019-06-20T10:48:39.188Z,25.80
2019-06-20T10:52:43.666Z,25.32
2019-06-20T10:56:47.315Z,24.27
2019-06-20T11:00:50.799Z,19.62
2019-06-20T11:04:54.348Z,17.10
2019-06-20T11:08:57.820Z,19.90
2019-06-20T11:13:01.655Z,19.90
2019-06-20T11:17:05.107Z,19.45
2019-06-20T11:21:08.568Z,17.82
2019-06-20T11:25:13.984Z,16.75
2019-06-20T11:29:17.781Z,16.57
2019-06-20T11:33:21.523Z,19.82
2019-06-20T11:37:25.013Z,15.58
2019-06-20T11:41:28.748Z,21.80
2019-06-20T11:45:32.217Z,13.75
2019-06-20T11:49:36.423Z,15.45
2019-06-20T11:53:40.642Z,16.12
2019-06-20T11:57:44.538Z,13.85
2019-06-20T12:01:49.083Z,9.50
2019-06-20T12:05:52.608Z,12.30
2019-06-20T12:09:56.069Z,7.00
2019-06-20T12:13:59.605Z,11.18
2019-06-20T12:18:03.087Z,12.45
2019-06-20T12:22:06.831Z,15.23
2019-06-20T12:26:10.416Z,16.77
2019-06-20T12:30:15.611Z,13.10
2019-06-20T12:34:19.334Z,11.50
2019-06-20T12:38:23.140Z,10.98
2019-06-20T12:42:26.857Z,9.98
2019-06-20T12:46:30.414Z,15.43
2019-06-20T12:50:34.228Z,10.70
2019-06-20T12:54:38.168Z,13.68
2019-06-20T12:58:42.232Z,13.53
2019-06-20T13:02:45.796Z,10.48
2019-06-20T13:06:49.827Z,14.50
2019-06-20T13:10:54.289Z,10.85
2019-06-20T13:15:01.022Z,9.58
2019-06-20T13:19:04.815Z,11.03
2019-06-20T13:23:08.343Z,10.82
2019-06-20T13:27:12.082Z,16.27
2019-06-20T13:31:15.871Z,12.50
2019-06-20T13:35:20.483Z,12.23
2019-06-20T13:39:23.940Z,13.22
2019-06-20T13:43:27.667Z,9.40
2019-06-20T13:47:31.135Z,12.95
2019-06-20T13:51:34.592Z,16.57
2019-06-20T13:55:39.410Z,13.05
2019-06-20T13:59:43.446Z,9.67
2019-06-20T14:03:48.628Z,9.35
2019-06-20T14:07:54.330Z,11.63
2019-06-20T14:11:57.505Z,12.60
2019-06-20T14:16:01.264Z,13.70
2019-06-20T14:20:08.395Z,7.85
2019-06-20T14:24:12.224Z,9.38
2019-06-20T14:28:17.242Z,8.43
2019-06-20T14:32:22.367Z,11.40
2019-06-20T14:36:26.066Z,13.10
2019-06-20T14:40:29.535Z,9.50
2019-06-20T14:44:33.316Z,11.50
2019-06-20T14:48:37.028Z,11.73
2019-06-20T14:52:40.496Z,12.30
2019-06-20T14:56:45.867Z,10.72
2019-06-20T15:00:49.865Z,9.03
2019-06-20T15:04:54.386Z,9.15
2019-06-20T15:09:04.803Z,6.55
2019-06-20T15:13:03.395Z,8.53
2019-06-20T15:17:06.863Z,8.73
2019-06-20T15:21:10.332Z,9.03
2019-06-20T15:25:14.128Z,9.20
2019-06-20T15:29:17.594Z,9.95
2019-06-20T15:33:21.071Z,8.07
2019-06-20T15:37:24.833Z,8.33
2019-06-20T15:41:28.637Z,7.87
2019-06-20T15:45:32.118Z,5.80
2019-06-20T15:49:35.893Z,8.20
2019-06-20T15:53:39.352Z,6.03
2019-06-20T15:57:42.848Z,7.28
2019-06-20T16:01:46.364Z,11.40
2019-06-20T16:05:49.831Z,7.70
2019-06-20T16:09:53.282Z,6.90
2019-06-20T16:13:56.740Z,7.55
2019-06-20T16:18:00.211Z,8.20
2019-06-20T16:22:03.796Z,7.75
2019-06-20T16:26:07.591Z,10.18
2019-06-20T16:30:11.953Z,13.03
2019-06-20T16:34:15.696Z,17.70
2019-06-20T16:38:19.219Z,14.10
2019-06-20T16:42:22.737Z,12.73
2019-06-20T16:46:26.300Z,14.23
2019-06-20T16:50:29.808Z,12.13
2019-06-20T16:54:33.518Z,10.67
2019-06-20T16:58:37.014Z,14.15
2019-06-20T17:02:40.596Z,12.63
2019-06-20T17:06:44.091Z,16.80
2019-06-20T17:10:47.829Z,13.13
2019-06-20T17:14:51.289Z,15.13
2019-06-20T17:18:54.741Z,11.68
2019-06-20T17:22:58.287Z,13.70
2019-06-20T17:27:02.006Z,16.57
2019-06-20T17:31:05.866Z,14.73
2019-06-20T17:35:09.409Z,12.82
2019-06-20T17:39:13.134Z,16.67
2019-06-20T17:43:16.604Z,17.77
2019-06-20T17:47:20.096Z,18.95
2019-06-20T17:51:23.563Z,18.70
2019-06-20T17:55:27.109Z,15.60
2019-06-20T17:59:30.577Z,11.70
2019-06-20T18:03:34.104Z,11.20
2019-06-20T18:07:37.821Z,12.27
2019-06-20T18:11:41.381Z,15.48
2019-06-20T18:15:44.873Z,12.90
2019-06-20T18:19:53.153Z,13.72
2019-06-20T18:23:56.993Z,13.13
2019-06-20T18:28:01.030Z,12.18
2019-06-20T18:32:04.848Z,12.40
2019-06-20T18:36:08.328Z,14.28
2019-06-20T18:40:12.058Z,12.90
2019-06-20T18:44:15.585Z,13.60
2019-06-20T18:48:19.058Z,14.28
2019-06-20T18:52:22.506Z,14.73
2019-06-20T18:56:26.055Z,12.85
2019-06-20T19:00:34.648Z,15.10
2019-06-20T19:04:46.192Z,14.60
2019-06-20T19:08:40.227Z,17.87
2019-06-20T19:12:43.675Z,14.60
2019-06-20T19:16:47.214Z,13.58
2019-06-20T19:20:51.255Z,15.75
2019-06-20T19:24:55.059Z,13.53
2019-06-20T19:28:58.594Z,14.10
2019-06-20T19:33:02.710Z,13.60
2019-06-20T19:37:06.241Z,16.00
2019-06-20T19:41:09.781Z,13.35
2019-06-20T19:45:15.887Z,14.87
2019-06-20T19:53:22.380Z,15.05
2019-06-20T19:57:25.975Z,19.32
2019-06-20T20:01:29.820Z,21.07
2019-06-20T20:05:33.618Z,16.75
2019-06-20T20:09:37.353Z,13.62
2019-06-20T20:13:41.147Z,17.63
2019-06-20T20:17:44.958Z,15.20
2019-06-20T20:21:48.673Z,20.27
2019-06-20T20:25:52.401Z,19.57
2019-06-20T20:29:55.900Z,20.08
2019-06-20T20:34:45.103Z,21.95
2019-06-20T20:38:48.557Z,16.37
2019-06-20T20:42:52.059Z,20.15
2019-06-20T20:46:55.884Z,15.13
2019-06-20T20:56:03.274Z,17.82
2019-06-20T21:00:13.348Z,15.90
2019-06-20T21:04:17.137Z,14.53
2019-06-20T21:08:20.895Z,13.03
2019-06-20T21:12:24.410Z,15.10
2019-06-20T21:16:34.093Z,23.22
2019-06-20T21:20:36.920Z,22.62
2019-06-20T21:24:40.383Z,19.15
2019-06-20T21:28:44.216Z,18.20
2019-06-20T21:32:47.666Z,31.12
2019-06-20T21:37:06.243Z,27.45
2019-06-20T21:41:10.045Z,22.55
2019-06-20T21:45:16.348Z,20.85
2019-06-20T21:49:22.258Z,22.27
2019-06-20T21:53:25.703Z,33.02
2019-06-20T21:57:29.516Z,22.55
2019-06-20T22:01:33.111Z,26.40
2019-06-20T22:05:36.916Z,21.37
2019-06-20T22:09:40.380Z,10.18
2019-06-20T22:13:45.871Z,13.53
2019-06-20T22:17:49.308Z,16.00
2019-06-20T22:21:53.032Z,10.38
2019-06-20T22:25:56.474Z,10.85
2019-06-20T22:30:03.504Z,14.93
2019-06-20T22:34:05.439Z,15.35
2019-06-20T22:38:09.267Z,17.40
2019-06-20T22:42:12.723Z,17.92
2019-06-20T22:46:16.196Z,14.38
2019-06-20T22:50:20.011Z,18.48
2019-06-20T22:54:23.479Z,15.38
2019-06-20T22:58:26.951Z,19.67
2019-06-20T23:02:30.428Z,15.98
2019-06-20T23:06:34.240Z,18.48
2019-06-20T23:10:37.936Z,15.83
2019-06-20T23:14:41.673Z,19.77
2019-06-20T23:18:45.137Z,19.35
2019-06-20T23:22:49.056Z,16.17
2019-06-20T23:26:52.592Z,18.85
2019-06-20T23:30:56.051Z,19.23
2019-06-20T23:34:59.800Z,22.30
2019-06-20T23:39:03.264Z,22.03
2019-06-20T23:43:06.803Z,24.57
2019-06-20T23:47:10.568Z,24.52
2019-06-20T23:51:24.930Z,33.55
2019-06-20T23:55:19.236Z,24.10
2019-06-20T23:59:22.703Z,26.23
